Time;durP1;ratioP1;P1;durP2;ratioP2;P2;SDS_P1;SDS_P2;PMS_P1;PMS_P2;Temp;Humidity;BMP_temperature;BMP_pressure;BME280_temperature;BME280_humidity;BME280_pressure;Samples;Min_cycle;Max_cycle;Signal;HPM_P1;HPM_P2
2021/03/27 00:02:27;;;;;;;64.90;28.25;;;;;;;;;;5035762;28;20022;-65
2021/03/27 00:05:02;;;;;;;63.20;27.52;;;;;;;;;;5033717;28;20359;-64
2021/03/27 00:07:37;;;;;;;62.13;27.58;;;;;;;;;;5035525;28;20017;-64
2021/03/27 00:10:09;;;;;;;66.15;29.25;;;;;;;;;;5035766;28;20135;-64
2021/03/27 00:12:45;;;;;;;57.88;27.25;;;;;;;;;;5035183;28;20065;-64
2021/03/27 00:15:20;;;;;;;61.55;27.35;;;;;;;;;;5035447;28;20013;-64
2021/03/27 00:17:55;;;;;;;72.72;30.05;;;;;;;;;;5035648;28;20017;-64
2021/03/27 00:20:25;;;;;;;69.05;28.45;;;;;;;;;;5035260;28;20017;-64
2021/03/27 00:22:53;;;;;;;66.72;28.13;;;;;;;;;;5035211;28;20056;-65
2021/03/27 00:25:24;;;;;;;63.38;28.10;;;;;;;;;;5017443;28;20029;-64
2021/03/27 00:30:47;;;;;;;70.13;27.77;;;;;;;;;;2759329;22;20098;-64
2021/03/27 00:33:13;;;;;;;68.47;29.17;;;;;;;;;;5053246;28;20016;-64
2021/03/27 00:35:42;;;;;;;70.40;28.38;;;;;;;;;;5055332;28;20466;-64
2021/03/27 00:38:11;;;;;;;64.80;27.20;;;;;;;;;;5054193;28;20021;-64
2021/03/27 00:40:36;;;;;;;;;;;;;;;;;;5054999;28;20773;-64
2021/03/27 00:43:04;;;;;;;66.57;28.20;;;;;;;;;;5053683;28;19909;-64
2021/03/27 00:45:33;;;;;;;66.40;27.33;;;;;;;;;;5053527;28;20766;-64
2021/03/27 00:48:03;;;;;;;74.03;29.92;;;;;;;;;;5054973;28;20104;-64
2021/03/27 00:50:34;;;;;;;71.97;29.52;;;;;;;;;;5055033;28;20056;-64
2021/03/27 00:53:01;;;;;;;64.13;27.50;;;;;;;;;;5055071;28;20012;-64
2021/03/27 00:55:37;;;;;;;69.05;29.35;;;;;;;;;;5054343;28;20104;-64
2021/03/27 00:58:06;;;;;;;69.65;30.25;;;;;;;;;;5054853;28;20140;-64
2021/03/27 01:00:32;;;;;;;;;;;;;;;;;;5053349;28;20013;-64
2021/03/27 01:03:00;;;;;;;74.97;29.00;;;;;;;;;;5054243;28;19911;-64
2021/03/27 01:05:27;;;;;;;75.97;30.40;;;;;;;;;;5054626;28;20312;-64
2021/03/27 01:07:54;;;;;;;84.28;32.22;;;;;;;;;;5054645;28;20359;-64
2021/03/27 01:10:31;;;;;;;74.75;30.05;;;;;;;;;;5054253;28;20478;-64
2021/03/27 01:12:57;;;;;;;70.78;31.38;;;;;;;;;;5054532;28;20024;-64
2021/03/27 01:15:29;;;;;;;76.43;32.03;;;;;;;;;;5054320;28;20339;-64
2021/03/27 01:17:57;;;;;;;74.85;31.63;;;;;;;;;;5054557;28;20032;-64
2021/03/27 01:20:23;;;;;;;72.97;31.15;;;;;;;;;;5054055;28;20024;-64
2021/03/27 01:22:49;;;;;;;72.35;31.02;;;;;;;;;;5054507;28;20029;-64
2021/03/27 01:25:19;;;;;;;70.63;30.90;;;;;;;;;;5053146;28;20032;-64
2021/03/27 01:33:34;;;;;;;77.65;31.55;;;;;;;;;;5169855;22;20488;-64
2021/03/27 01:36:07;;;;;;;74.15;30.48;;;;;;;;;;5092216;28;20066;-64
2021/03/27 01:38:37;;;;;;;70.95;31.38;;;;;;;;;;5092935;28;20131;-64
2021/03/27 01:41:13;;;;;;;83.80;33.05;;;;;;;;;;5094101;28;20008;-64
2021/03/27 01:43:39;;;;;;;68.72;31.00;;;;;;;;;;5075687;28;20030;-64
2021/03/27 01:46:12;;;;;;;78.68;31.88;;;;;;;;;;5093872;28;20070;-64
2021/03/27 01:48:48;;;;;;;75.57;30.75;;;;;;;;;;5093715;28;20078;-64
2021/03/27 01:51:23;;;;;;;73.95;30.65;;;;;;;;;;5093676;28;20042;-64
2021/03/27 01:53:57;;;;;;;76.38;30.83;;;;;;;;;;5094109;28;20066;-65
2021/03/27 01:56:23;;;;;;;78.80;32.17;;;;;;;;;;5093807;28;20085;-65
2021/03/27 01:58:52;;;;;;;80.07;32.95;;;;;;;;;;5093415;28;20028;-64
2021/03/27 02:01:18;;;;;;;;;;;;;;;;;;5075638;28;20020;-64
2021/03/27 02:03:49;;;;;;;69.63;28.20;;;;;;;;;;5093151;28;19911;-65
2021/03/27 02:06:16;;;;;;;72.90;29.75;;;;;;;;;;5092866;28;20248;-64
2021/03/27 02:08:51;;;;;;;81.97;31.48;;;;;;;;;;5092064;28;20024;-64
2021/03/27 02:11:19;;;;;;;70.25;30.08;;;;;;;;;;5093518;28;20028;-64
2021/03/27 02:13:47;;;;;;;78.07;31.17;;;;;;;;;;5093532;28;20028;-64
2021/03/27 02:16:22;;;;;;;69.75;29.50;;;;;;;;;;5093406;28;20024;-64
2021/03/27 02:18:57;;;;;;;68.55;30.02;;;;;;;;;;5074799;28;20034;-64
2021/03/27 02:21:32;;;;;;;71.72;30.67;;;;;;;;;;5075115;28;20137;-64
2021/03/27 02:23:59;;;;;;;66.68;29.13;;;;;;;;;;5093398;28;20016;-64
2021/03/27 02:26:27;;;;;;;70.80;29.33;;;;;;;;;;5093332;28;20024;-64
2021/03/27 02:28:56;;;;;;;80.93;31.77;;;;;;;;;;5093243;28;20099;-65
2021/03/27 02:31:29;;;;;;;72.97;30.13;;;;;;;;;;5092825;28;20099;-65
2021/03/27 02:33:57;;;;;;;67.72;29.27;;;;;;;;;;5092547;28;20063;-65
2021/03/27 02:36:24;;;;;;;76.20;32.30;;;;;;;;;;5092932;28;20077;-65
2021/03/27 02:38:59;;;;;;;73.68;30.35;;;;;;;;;;5092692;28;20020;-65
2021/03/27 02:41:34;;;;;;;76.28;32.70;;;;;;;;;;5092833;28;20016;-65
2021/03/27 02:44:05;;;;;;;80.28;30.83;;;;;;;;;;5093082;28;20028;-65
2021/03/27 02:46:31;;;;;;;69.32;29.88;;;;;;;;;;5074729;28;20396;-64
2021/03/27 02:49:10;;;;;;;67.22;31.33;;;;;;;;;;5075048;28;20028;-65
2021/03/27 02:51:41;;;;;;;69.57;30.60;;;;;;;;;;5092914;28;20459;-65
2021/03/27 02:54:16;;;;;;;71.25;30.08;;;;;;;;;;5092771;28;20032;-65
2021/03/27 02:56:45;;;;;;;73.72;31.65;;;;;;;;;;5074499;28;20020;-65
2021/03/27 02:59:13;;;;;;;75.60;31.85;;;;;;;;;;5074634;28;20115;-65
2021/03/27 03:01:49;;;;;;;68.00;29.70;;;;;;;;;;5092908;28;20116;-65
2021/03/27 03:04:18;;;;;;;76.60;32.05;;;;;;;;;;5092053;28;20069;-65
2021/03/27 03:06:53;;;;;;;70.68;30.10;;;;;;;;;;5092424;28;20090;-65
2021/03/27 03:09:28;;;;;;;69.47;30.88;;;;;;;;;;5092541;28;20020;-65
2021/03/27 03:11:56;;;;;;;73.97;32.47;;;;;;;;;;5092708;28;20024;-65
2021/03/27 03:14:31;;;;;;;75.72;31.17;;;;;;;;;;5074317;28;20047;-65
2021/03/27 03:17:06;;;;;;;72.55;29.95;;;;;;;;;;5093320;28;20472;-65
2021/03/27 03:19:40;;;;;;;75.55;30.38;;;;;;;;;;5096904;28;20023;-65
2021/03/27 03:22:05;;;;;;;71.38;30.55;;;;;;;;;;5061897;28;20031;-65
2021/03/27 03:24:31;;;;;;;72.50;30.90;;;;;;;;;;5096454;28;20099;-65
2021/03/27 03:27:04;;;;;;;73.05;30.23;;;;;;;;;;5096155;28;20020;-65
2021/03/27 03:29:29;;;;;;;75.60;31.88;;;;;;;;;;5096754;28;20027;-65
2021/03/27 03:32:05;;;;;;;75.85;32.80;;;;;;;;;;5096512;28;20024;-65
2021/03/27 03:34:39;;;;;;;71.10;31.05;;;;;;;;;;5095422;28;20043;-65
2021/03/27 03:37:04;;;;;;;69.00;32.00;;;;;;;;;;5061563;28;20024;-65
2021/03/27 03:39:33;;;;;;;68.00;30.85;;;;;;;;;;5096135;28;20027;-65
2021/03/27 03:42:08;;;;;;;68.18;30.00;;;;;;;;;;5096671;28;20024;-65
2021/03/27 03:44:34;;;;;;;63.95;30.65;;;;;;;;;;5096240;28;20027;-65
2021/03/27 03:47:09;;;;;;;67.55;29.05;;;;;;;;;;5096398;28;20472;-65
2021/03/27 03:49:34;;;;;;;67.15;29.40;;;;;;;;;;5096555;28;20024;-65
2021/03/27 03:52:09;;;;;;;70.90;30.20;;;;;;;;;;5077888;28;20047;-65
2021/03/27 03:54:39;;;;;;;80.97;31.13;;;;;;;;;;5077598;28;20114;-65
2021/03/27 03:57:14;;;;;;;74.63;31.40;;;;;;;;;;5096303;28;20099;-65
2021/03/27 03:59:49;;;;;;;69.13;29.98;;;;;;;;;;5096114;28;20046;-65
2021/03/27 04:02:14;;;;;;;79.03;31.95;;;;;;;;;;5096054;28;20020;-65
2021/03/27 04:04:42;;;;;;;74.22;31.30;;;;;;;;;;5095182;28;20468;-65
2021/03/27 04:07:10;;;;;;;69.78;29.75;;;;;;;;;;5095842;28;20023;-65
2021/03/27 04:09:38;;;;;;;69.20;29.92;;;;;;;;;;5077704;28;20091;-65
2021/03/27 04:12:13;;;;;;;67.15;29.38;;;;;;;;;;5095968;28;20036;-65
2021/03/27 04:14:48;;;;;;;70.25;30.40;;;;;;;;;;5095810;28;20020;-65
2021/03/27 04:17:19;;;;;;;68.80;28.85;;;;;;;;;;5077361;28;20020;-65
2021/03/27 04:19:48;;;;;;;78.28;32.42;;;;;;;;;;5077868;28;20020;-65
2021/03/27 04:22:23;;;;;;;77.32;31.35;;;;;;;;;;5095498;28;20012;-65
2021/03/27 04:24:49;;;;;;;69.88;29.98;;;;;;;;;;5077361;28;20107;-64
2021/03/27 04:27:23;;;;;;;72.95;31.88;;;;;;;;;;5095389;28;20020;-65
2021/03/27 04:29:58;;;;;;;73.20;30.08;;;;;;;;;;5094769;28;20016;-65
2021/03/27 04:32:27;;;;;;;63.97;30.83;;;;;;;;;;5095121;28;20026;-65
2021/03/27 04:34:57;;;;;;;67.63;30.20;;;;;;;;;;5094497;28;20131;-65
2021/03/27 04:37:22;;;;;;;65.32;29.05;;;;;;;;;;5095229;28;20012;-65
2021/03/27 04:39:57;;;;;;;73.30;31.35;;;;;;;;;;5095234;28;20032;-65
2021/03/27 04:42:29;;;;;;;76.47;30.60;;;;;;;;;;5095468;28;20024;-65
2021/03/27 04:45:04;;;;;;;71.82;30.73;;;;;;;;;;5095463;28;20039;-64
2021/03/27 04:47:32;;;;;;;68.78;30.23;;;;;;;;;;5077043;28;20063;-65
2021/03/27 04:50:07;;;;;;;67.75;29.67;;;;;;;;;;5095190;28;20030;-65
2021/03/27 04:52:33;;;;;;;69.60;29.77;;;;;;;;;;5076453;28;20024;-65
2021/03/27 04:55:14;;;;;;;74.32;30.83;;;;;;;;;;5076758;28;20021;-65
2021/03/27 04:57:59;;;;;;;69.93;30.75;;;;;;;;;;5076788;28;20071;-65
2021/03/27 05:31:03;;;;;;;71.40;31.05;;;;;;;;;;5092450;28;20031;-64
2021/03/27 05:33:28;;;;;;;69.72;29.50;;;;;;;;;;5092566;28;20043;-64
2021/03/27 05:36:01;;;;;;;70.20;30.08;;;;;;;;;;5076340;28;20020;-64
2021/03/27 05:38:36;;;;;;;66.32;29.65;;;;;;;;;;5094238;28;20045;-64
2021/03/27 05:41:21;;;;;;;68.32;29.85;;;;;;;;;;5093216;28;20384;-64
2021/03/27 05:43:47;;;;;;;71.22;32.00;;;;;;;;;;5079290;28;20024;-65
2021/03/27 05:46:22;;;;;;;75.07;30.65;;;;;;;;;;5094319;28;20099;-65
2021/03/27 05:48:57;;;;;;;66.45;29.58;;;;;;;;;;5075722;28;20028;-65
2021/03/27 05:51:40;;;;;;;64.32;29.88;;;;;;;;;;5093697;28;20500;-65
2021/03/27 05:54:10;;;;;;;64.15;29.83;;;;;;;;;;5093975;28;20028;-65
2021/03/27 05:56:45;;;;;;;65.78;30.52;;;;;;;;;;5093852;28;20061;-65
2021/03/27 05:59:14;;;;;;;65.38;31.38;;;;;;;;;;5075624;28;20020;-65
2021/03/27 06:01:41;;;;;;;63.60;30.98;;;;;;;;;;5075358;28;20107;-65
2021/03/27 06:04:08;;;;;;;73.50;31.48;;;;;;;;;;5074943;28;20073;-64
2021/03/27 06:06:43;;;;;;;64.88;30.20;;;;;;;;;;5075279;28;20043;-65
2021/03/27 06:09:18;;;;;;;67.47;30.33;;;;;;;;;;5075406;28;20015;-65
2021/03/27 06:11:48;;;;;;;66.60;30.95;;;;;;;;;;5093516;28;20020;-65
2021/03/27 06:14:23;;;;;;;63.42;28.70;;;;;;;;;;5075305;28;20058;-65
2021/03/27 06:16:58;;;;;;;62.75;29.58;;;;;;;;;;5093555;28;20043;-64
2021/03/27 06:19:33;;;;;;;65.43;32.03;;;;;;;;;;5093317;28;20605;-65
2021/03/27 06:22:01;;;;;;;67.75;30.27;;;;;;;;;;5075214;28;20031;-65
2021/03/27 06:24:27;;;;;;;63.00;28.52;;;;;;;;;;5093385;28;20008;-65
2021/03/27 06:27:02;;;;;;;64.70;31.48;;;;;;;;;;5093204;28;20100;-65
2021/03/27 06:29:37;;;;;;;65.30;29.05;;;;;;;;;;5093258;28;20023;-65
2021/03/27 06:32:02;;;;;;;66.97;30.77;;;;;;;;;;5093101;28;20142;-64
2021/03/27 06:34:37;;;;;;;61.22;29.10;;;;;;;;;;5074170;28;20134;-64
2021/03/27 06:37:09;;;;;;;62.30;28.83;;;;;;;;;;5092982;28;20009;-66
2021/03/27 06:39:44;;;;;;;65.15;31.30;;;;;;;;;;5075293;28;20024;-64
2021/03/27 06:42:09;;;;;;;56.92;29.08;;;;;;;;;;5093083;28;20012;-64
2021/03/27 06:44:44;;;;;;;58.92;29.77;;;;;;;;;;5092665;28;20020;-64
2021/03/27 06:50:40;;;;;;;65.20;29.55;;;;;;;;;;5092166;28;20026;-64
2021/03/27 07:09:07;;;;;;;58.65;28.40;;;;;;;;;;5091200;28;20043;-64
2021/03/27 07:14:46;;;;;;;54.95;27.50;;;;;;;;;;5091252;28;20434;-64
2021/03/27 07:17:21;;;;;;;62.75;27.95;;;;;;;;;;5091325;28;20099;-64
2021/03/27 07:19:56;;;;;;;57.60;28.30;;;;;;;;;;5074448;28;20384;-64
2021/03/27 07:22:32;;;;;;;59.92;28.77;;;;;;;;;;5092750;28;20460;-64
2021/03/27 07:25:01;;;;;;;49.38;25.83;;;;;;;;;;5092808;28;20062;-64
2021/03/27 07:27:27;;;;;;;50.80;25.10;;;;;;;;;;5092358;28;20089;-64
2021/03/27 07:29:53;;;;;;;52.30;25.67;;;;;;;;;;5092710;28;20020;-64
2021/03/27 07:32:28;;;;;;;48.47;24.38;;;;;;;;;;5074247;28;20396;-64
2021/03/27 07:34:58;;;;;;;51.55;25.58;;;;;;;;;;5073606;28;20048;-64
2021/03/27 07:37:25;;;;;;;49.30;24.45;;;;;;;;;;5074395;28;20016;-64
2021/03/27 07:39:50;;;;;;;57.20;24.98;;;;;;;;;;5074253;28;20020;-64
2021/03/27 07:42:26;;;;;;;49.65;24.08;;;;;;;;;;5074569;28;20035;-64
2021/03/27 07:44:54;;;;;;;55.60;24.52;;;;;;;;;;5092206;28;20512;-64
2021/03/27 07:47:20;;;;;;;47.53;24.50;;;;;;;;;;5074409;28;20028;-65
2021/03/27 07:49:55;;;;;;;46.22;20.88;;;;;;;;;;5092363;28;20020;-65
2021/03/27 07:52:30;;;;;;;46.90;22.58;;;;;;;;;;5092078;28;20028;-65
2021/03/27 07:55:05;;;;;;;52.22;22.23;;;;;;;;;;5074591;28;20028;-64
2021/03/27 07:57:40;;;;;;;42.25;20.83;;;;;;;;;;5092352;28;20384;-65
2021/03/27 08:00:15;;;;;;;46.13;21.77;;;;;;;;;;5092133;28;20022;-64
2021/03/27 08:03:00;;;;;;;38.80;20.48;;;;;;;;;;5091610;28;20019;-64
2021/03/27 08:05:26;;;;;;;48.50;22.85;;;;;;;;;;5080013;28;20453;-64
2021/03/27 08:07:51;;;;;;;41.70;21.77;;;;;;;;;;5096211;28;20047;-64
2021/03/27 08:10:18;;;;;;;40.17;20.23;;;;;;;;;;5095845;28;20361;-64
2021/03/27 08:12:53;;;;;;;48.50;21.58;;;;;;;;;;5095808;28;20027;-64
2021/03/27 08:15:19;;;;;;;41.88;20.80;;;;;;;;;;5077556;28;20024;-64
2021/03/27 08:17:44;;;;;;;43.63;20.70;;;;;;;;;;5077622;28;20023;-65
2021/03/27 08:20:20;;;;;;;42.38;21.45;;;;;;;;;;5095688;28;20525;-65
2021/03/27 08:22:55;;;;;;;42.28;20.98;;;;;;;;;;5095637;28;20016;-65
2021/03/27 08:25:30;;;;;;;40.60;21.48;;;;;;;;;;5095862;28;20012;-65
2021/03/27 08:27:59;;;;;;;44.97;21.48;;;;;;;;;;5077281;28;20016;-65
2021/03/27 08:30:31;;;;;;;44.65;20.55;;;;;;;;;;5095638;28;20024;-65
2021/03/27 08:33:06;;;;;;;46.40;20.60;;;;;;;;;;5094832;28;20036;-65
2021/03/27 08:35:45;;;;;;;47.92;21.98;;;;;;;;;;5095379;28;20055;-65
2021/03/27 08:38:10;;;;;;;43.50;20.20;;;;;;;;;;5077213;28;20031;-65
2021/03/27 08:40:45;;;;;;;40.45;19.63;;;;;;;;;;5076892;28;20028;-65
2021/03/27 08:43:11;;;;;;;47.08;20.17;;;;;;;;;;5095456;28;20016;-65
2021/03/27 08:45:47;;;;;;;40.78;21.77;;;;;;;;;;5095468;28;20023;-65
2021/03/27 08:48:22;;;;;;;36.28;18.55;;;;;;;;;;5095359;28;20028;-65
2021/03/27 08:50:57;;;;;;;37.00;20.08;;;;;;;;;;5095036;28;20027;-65
2021/03/27 08:53:32;;;;;;;38.85;19.95;;;;;;;;;;5095114;28;20016;-66
2021/03/27 08:55:58;;;;;;;42.70;20.05;;;;;;;;;;5095244;28;20099;-65
2021/03/27 08:58:23;;;;;;;41.33;21.17;;;;;;;;;;5094930;28;20087;-65
2021/03/27 09:00:59;;;;;;;43.80;20.08;;;;;;;;;;5094758;28;20046;-65
2021/03/27 09:03:25;;;;;;;41.90;21.02;;;;;;;;;;5094060;28;20016;-66
2021/03/27 09:05:51;;;;;;;38.58;19.10;;;;;;;;;;5095162;28;20052;-65
2021/03/27 09:08:21;;;;;;;42.15;21.02;;;;;;;;;;5094709;28;20056;-66
2021/03/27 09:10:56;;;;;;;38.42;19.85;;;;;;;;;;5094854;28;20023;-65
2021/03/27 09:13:22;;;;;;;41.13;19.42;;;;;;;;;;5094639;28;20035;-65
2021/03/27 09:15:57;;;;;;;37.15;18.60;;;;;;;;;;5094704;28;20353;-65
2021/03/27 09:18:32;;;;;;;34.72;19.73;;;;;;;;;;5094885;28;20122;-65
2021/03/27 09:21:07;;;;;;;35.05;18.80;;;;;;;;;;5076501;28;20019;-65
2021/03/27 09:23:32;;;;;;;36.08;20.67;;;;;;;;;;5095106;28;20099;-65
2021/03/27 09:26:07;;;;;;;41.25;18.98;;;;;;;;;;5076396;28;20439;-65
2021/03/27 09:28:40;;;;;;;45.03;19.73;;;;;;;;;;5094043;28;20047;-65
2021/03/27 09:31:15;;;;;;;35.42;18.55;;;;;;;;;;5076522;28;20020;-65
2021/03/27 09:33:46;;;;;;;49.28;21.58;;;;;;;;;;5075423;28;20052;-65
2021/03/27 09:36:11;;;;;;;43.38;19.75;;;;;;;;;;5076061;28;20045;-65
2021/03/27 09:38:42;;;;;;;44.97;19.58;;;;;;;;;;5094166;28;20114;-65
2021/03/27 09:41:17;;;;;;;38.47;17.60;;;;;;;;;;5094275;28;20069;-65
2021/03/27 09:43:52;;;;;;;31.98;18.00;;;;;;;;;;5094091;28;20015;-65
2021/03/27 09:46:27;;;;;;;35.63;18.30;;;;;;;;;;5093927;28;20488;-65
2021/03/27 09:49:02;;;;;;;36.47;18.85;;;;;;;;;;5076084;28;20016;-65
2021/03/27 09:51:37;;;;;;;39.85;17.85;;;;;;;;;;5059004;28;20023;-65
2021/03/27 09:54:02;;;;;;;45.90;23.05;;;;;;;;;;5094213;28;20066;-65
2021/03/27 09:56:33;;;;;;;41.50;22.80;;;;;;;;;;5094028;28;20023;-65
2021/03/27 09:59:09;;;;;;;34.72;17.98;;;;;;;;;;5093801;28;20043;-65
2021/03/27 10:01:40;;;;;;;29.35;17.60;;;;;;;;;;5075654;28;20095;-65
2021/03/27 10:04:12;;;;;;;33.03;18.50;;;;;;;;;;5058235;28;20066;-65
2021/03/27 10:06:47;;;;;;;38.72;17.63;;;;;;;;;;5093533;28;20016;-65
2021/03/27 10:09:22;;;;;;;38.05;18.20;;;;;;;;;;5093721;28;20028;-65
2021/03/27 10:11:52;;;;;;;36.20;17.30;;;;;;;;;;5093826;28;20043;-65
2021/03/27 10:14:20;;;;;;;38.90;16.83;;;;;;;;;;5093759;28;20114;-65
2021/03/27 10:16:52;;;;;;;30.42;17.30;;;;;;;;;;5093381;28;20035;-65
2021/03/27 10:19:17;;;;;;;32.63;16.15;;;;;;;;;;5093371;28;20473;-65
2021/03/27 10:21:46;;;;;;;30.90;17.05;;;;;;;;;;5093506;28;20031;-65
2021/03/27 10:24:12;;;;;;;32.63;16.98;;;;;;;;;;5093645;28;20008;-65
2021/03/27 10:26:47;;;;;;;44.95;16.42;;;;;;;;;;5074629;28;20429;-65
2021/03/27 10:31:51;;;;;;;32.05;15.80;;;;;;;;;;5093060;28;20507;-66
2021/03/27 10:34:24;;;;;;;32.95;16.17;;;;;;;;;;5074278;28;20389;-65
2021/03/27 10:36:59;;;;;;;27.55;16.05;;;;;;;;;;5074886;28;20031;-65
2021/03/27 10:39:34;;;;;;;28.52;15.40;;;;;;;;;;5093125;28;20098;-65
2021/03/27 10:42:19;;;;;;;28.02;14.65;;;;;;;;;;5074954;28;20097;-65
2021/03/27 10:44:45;;;;;;;34.25;14.00;;;;;;;;;;5060710;28;20016;-65
2021/03/27 10:47:24;;;;;;;26.38;13.50;;;;;;;;;;5093045;28;20377;-65
2021/03/27 10:49:53;;;;;;;32.92;14.82;;;;;;;;;;5093275;28;20016;-66
2021/03/27 10:52:20;;;;;;;27.55;14.25;;;;;;;;;;5092935;28;20086;-66
2021/03/27 10:54:53;;;;;;;26.58;13.13;;;;;;;;;;5092633;28;20019;-66
2021/03/27 10:57:28;;;;;;;34.58;13.05;;;;;;;;;;5092823;28;20020;-66
2021/03/27 10:59:59;;;;;;;24.20;12.05;;;;;;;;;;5075186;28;20016;-65
2021/03/27 11:02:37;;;;;;;42.75;11.95;;;;;;;;;;5075134;28;20020;-65
2021/03/27 11:05:05;;;;;;;27.85;11.27;;;;;;;;;;5092226;28;20016;-66
2021/03/27 11:07:31;;;;;;;23.77;11.40;;;;;;;;;;5092732;28;20020;-66
2021/03/27 11:10:06;;;;;;;24.88;12.73;;;;;;;;;;5092722;28;20095;-65
2021/03/27 11:12:33;;;;;;;25.15;12.70;;;;;;;;;;5074393;28;20039;-65
2021/03/27 11:15:08;;;;;;;25.52;12.98;;;;;;;;;;5092959;28;20028;-65
2021/03/27 11:17:43;;;;;;;27.98;13.25;;;;;;;;;;5092699;28;20013;-65
2021/03/27 11:20:11;;;;;;;36.90;16.17;;;;;;;;;;5092824;28;20064;-66
2021/03/27 11:22:46;;;;;;;41.60;14.45;;;;;;;;;;5092562;28;20016;-65
2021/03/27 11:25:21;;;;;;;21.80;11.82;;;;;;;;;;5092887;28;20031;-66
2021/03/27 11:27:53;;;;;;;33.83;13.27;;;;;;;;;;5074280;28;20495;-66
2021/03/27 11:30:20;;;;;;;26.05;13.65;;;;;;;;;;5092788;28;20019;-66
2021/03/27 11:32:47;;;;;;;25.00;13.65;;;;;;;;;;5091778;28;20032;-66
2021/03/27 11:35:16;;;;;;;26.10;13.55;;;;;;;;;;5074197;28;20139;-65
2021/03/27 11:37:51;;;;;;;30.95;14.65;;;;;;;;;;5074658;28;20016;-65
2021/03/27 11:40:26;;;;;;;30.48;13.93;;;;;;;;;;5096575;28;20028;-65
2021/03/27 11:42:57;;;;;;;27.05;13.73;;;;;;;;;;5096189;28;20018;-65
2021/03/27 11:45:22;;;;;;;32.22;14.77;;;;;;;;;;5096373;28;20074;-65
2021/03/27 11:47:58;;;;;;;26.83;13.38;;;;;;;;;;5078515;28;20024;-65
2021/03/27 11:50:34;;;;;;;25.48;13.00;;;;;;;;;;5096588;28;20099;-66
2021/03/27 11:53:05;;;;;;;28.33;14.18;;;;;;;;;;5096254;28;20072;-66
2021/03/27 11:55:35;;;;;;;25.70;12.73;;;;;;;;;;5096676;28;20008;-66
2021/03/27 11:58:09;;;;;;;26.50;13.65;;;;;;;;;;5096423;28;20023;-66
2021/03/27 12:03:24;;;;;;;21.13;11.60;;;;;;;;;;5095503;28;20074;-65
2021/03/27 12:05:51;;;;;;;25.20;11.20;;;;;;;;;;5077923;28;20027;-66
2021/03/27 12:08:24;;;;;;;27.52;13.20;;;;;;;;;;5061163;28;20476;-65
2021/03/27 12:10:50;;;;;;;23.20;12.75;;;;;;;;;;5095943;28;20028;-65
2021/03/27 12:13:20;;;;;;;21.80;12.05;;;;;;;;;;5095859;28;20016;-65
2021/03/27 12:15:53;;;;;;;23.95;12.18;;;;;;;;;;5095964;28;20020;-65
2021/03/27 12:18:38;;;;;;;24.00;12.38;;;;;;;;;;5096115;28;20384;-65
2021/03/27 12:21:05;;;;;;;32.15;12.32;;;;;;;;;;5080639;28;20048;-66
2021/03/27 12:23:31;;;;;;;27.92;14.07;;;;;;;;;;5095949;28;20024;-66
2021/03/27 12:25:58;;;;;;;27.08;14.07;;;;;;;;;;5095687;28;20012;-66
2021/03/27 12:28:31;;;;;;;26.90;14.48;;;;;;;;;;5077228;28;20012;-66
2021/03/27 12:30:57;;;;;;;20.27;10.90;;;;;;;;;;5095629;28;20005;-66
2021/03/27 12:33:33;;;;;;;21.50;8.77;;;;;;;;;;5076461;28;20028;-66
2021/03/27 12:36:01;;;;;;;20.60;9.38;;;;;;;;;;5095811;28;20030;-66
2021/03/27 12:38:32;;;;;;;19.25;9.23;;;;;;;;;;5095500;28;20062;-66
2021/03/27 12:41:00;;;;;;;17.17;8.68;;;;;;;;;;5077267;28;20020;-65
2021/03/27 12:43:29;;;;;;;15.90;9.32;;;;;;;;;;5095267;28;20368;-65
2021/03/27 12:46:04;;;;;;;15.50;7.82;;;;;;;;;;5077691;28;20024;-66
2021/03/27 12:48:39;;;;;;;15.30;7.80;;;;;;;;;;5095248;28;20039;-66
2021/03/27 12:51:12;;;;;;;18.73;7.40;;;;;;;;;;5094869;28;20028;-66
2021/03/27 12:53:40;;;;;;;15.60;8.13;;;;;;;;;;5095402;28;20039;-66
2021/03/27 12:56:15;;;;;;;15.13;8.52;;;;;;;;;;5095136;28;20027;-66
2021/03/27 12:58:50;;;;;;;18.90;9.43;;;;;;;;;;5095106;28;20028;-66
2021/03/27 13:01:25;;;;;;;21.45;9.50;;;;;;;;;;5095310;28;20114;-66
2021/03/27 13:04:00;;;;;;;23.13;11.95;;;;;;;;;;5094138;28;20017;-66
2021/03/27 13:06:35;;;;;;;17.70;8.93;;;;;;;;;;5095148;28;20020;-66
2021/03/27 13:09:10;;;;;;;16.83;8.70;;;;;;;;;;5095160;28;20020;-66
2021/03/27 13:11:45;;;;;;;15.32;8.85;;;;;;;;;;5094979;28;20111;-66
2021/03/27 13:14:30;;;;;;;15.82;6.97;;;;;;;;;;5094920;28;20031;-66
2021/03/27 13:16:59;;;;;;;17.67;8.40;;;;;;;;;;5079925;28;20435;-66
2021/03/27 13:19:44;;;;;;;14.63;7.93;;;;;;;;;;5076517;28;20024;-66
2021/03/27 13:22:19;;;;;;;20.17;7.88;;;;;;;;;;5079650;28;20073;-66
2021/03/27 13:24:54;;;;;;;19.92;8.63;;;;;;;;;;5076060;28;20074;-65
2021/03/27 13:27:24;;;;;;;20.58;9.15;;;;;;;;;;5094292;28;20464;-65
2021/03/27 13:29:50;;;;;;;24.65;8.05;;;;;;;;;;5094516;28;20103;-65
2021/03/27 13:32:16;;;;;;;12.63;7.30;;;;;;;;;;5076277;28;20449;-66
2021/03/27 13:34:51;;;;;;;13.38;6.10;;;;;;;;;;5093101;28;20044;-66
2021/03/27 13:37:22;;;;;;;16.48;6.32;;;;;;;;;;5094361;28;20069;-66
2021/03/27 13:39:51;;;;;;;8.75;5.38;;;;;;;;;;5094444;28;20024;-66
2021/03/27 13:42:26;;;;;;;11.38;5.07;;;;;;;;;;5094173;28;20028;-66
2021/03/27 13:44:52;;;;;;;14.85;5.50;;;;;;;;;;5075663;28;20477;-65
2021/03/27 13:47:21;;;;;;;9.68;5.97;;;;;;;;;;5094329;28;20023;-65
2021/03/27 13:49:56;;;;;;;13.45;6.05;;;;;;;;;;5093826;28;20020;-65
2021/03/27 13:52:24;;;;;;;8.05;4.95;;;;;;;;;;5075704;28;20039;-66
2021/03/27 13:54:51;;;;;;;14.20;5.88;;;;;;;;;;5093956;28;20016;-65
2021/03/27 13:57:26;;;;;;;12.45;5.28;;;;;;;;;;5093938;28;20080;-65
2021/03/27 13:59:51;;;;;;;10.48;5.10;;;;;;;;;;5094186;28;20506;-65
2021/03/27 14:02:28;;;;;;;12.68;6.20;;;;;;;;;;5092736;28;20032;-65
2021/03/27 14:05:00;;;;;;;16.23;6.38;;;;;;;;;;5093410;28;20027;-65
2021/03/27 14:07:32;;;;;;;13.15;7.18;;;;;;;;;;5093574;28;20018;-65
2021/03/27 14:10:07;;;;;;;15.23;7.78;;;;;;;;;;5093918;28;20024;-65
2021/03/27 14:12:42;;;;;;;35.22;10.18;;;;;;;;;;5093592;28;20063;-65
2021/03/27 14:15:11;;;;;;;21.42;8.27;;;;;;;;;;5093717;28;20099;-65
2021/03/27 14:17:46;;;;;;;14.15;6.65;;;;;;;;;;5093680;28;20031;-65
2021/03/27 14:20:11;;;;;;;19.17;7.85;;;;;;;;;;5093632;28;20074;-65
2021/03/27 14:22:39;;;;;;;17.45;10.00;;;;;;;;;;5093339;28;20052;-65
2021/03/27 14:25:05;;;;;;;19.02;8.45;;;;;;;;;;5093460;28;20081;-65
2021/03/27 14:27:35;;;;;;;12.93;6.90;;;;;;;;;;5093275;28;20472;-65
2021/03/27 14:30:07;;;;;;;15.10;6.63;;;;;;;;;;5093384;28;20046;-65
2021/03/27 14:32:40;;;;;;;13.57;6.60;;;;;;;;;;5093090;28;20028;-65
2021/03/27 14:35:12;;;;;;;13.00;7.13;;;;;;;;;;5074403;28;20090;-65
2021/03/27 14:37:37;;;;;;;15.45;7.57;;;;;;;;;;5093165;28;20012;-65
2021/03/27 14:40:09;;;;;;;13.65;7.60;;;;;;;;;;5093060;28;20039;-65
2021/03/27 14:42:44;;;;;;;14.43;7.65;;;;;;;;;;5092961;28;20015;-65
2021/03/27 14:45:19;;;;;;;13.18;5.93;;;;;;;;;;5074943;28;20012;-65
2021/03/27 14:47:54;;;;;;;11.73;5.95;;;;;;;;;;5093187;28;20372;-65
2021/03/27 14:50:24;;;;;;;20.65;10.38;;;;;;;;;;5093258;28;20027;-65
2021/03/27 14:52:53;;;;;;;13.60;5.53;;;;;;;;;;5092487;28;20396;-65
2021/03/27 14:55:28;;;;;;;9.77;5.47;;;;;;;;;;5092977;28;20051;-65
2021/03/27 14:58:04;;;;;;;11.15;5.47;;;;;;;;;;5093006;28;20024;-65
2021/03/27 15:00:35;;;;;;;12.43;5.55;;;;;;;;;;5092785;28;20104;-65
2021/03/27 15:03:05;;;;;;;14.75;6.15;;;;;;;;;;5092159;28;20015;-65
2021/03/27 15:05:32;;;;;;;18.35;6.63;;;;;;;;;;5092949;28;20055;-65
2021/03/27 15:08:02;;;;;;;11.57;6.10;;;;;;;;;;5093031;28;20027;-65
2021/03/27 15:10:38;;;;;;;20.73;7.78;;;;;;;;;;5092860;28;20024;-65
2021/03/27 15:13:10;;;;;;;15.95;6.50;;;;;;;;;;5092446;28;20481;-65
2021/03/27 15:15:44;;;;;;;11.07;6.35;;;;;;;;;;5092900;28;20032;-65
2021/03/27 15:18:17;;;;;;;13.35;6.05;;;;;;;;;;5092733;28;20043;-65
2021/03/27 15:20:45;;;;;;;16.15;6.60;;;;;;;;;;5092393;28;20012;-65
2021/03/27 15:23:17;;;;;;;11.70;6.05;;;;;;;;;;5074557;28;20089;-65
2021/03/27 15:28:30;;;;;;;15.52;6.22;;;;;;;;;;5092415;28;20063;-65
2021/03/27 15:31:01;;;;;;;9.90;5.75;;;;;;;;;;5092770;28;20065;-65
2021/03/27 15:33:40;;;;;;;9.13;5.65;;;;;;;;;;5091640;28;20552;-65
2021/03/27 15:36:15;;;;;;;13.48;5.78;;;;;;;;;;5092706;28;20012;-65
2021/03/27 15:38:51;;;;;;;11.50;4.97;;;;;;;;;;5092427;28;20024;-65
2021/03/27 15:41:19;;;;;;;6.40;4.10;;;;;;;;;;5092675;28;20027;-65
2021/03/27 15:43:55;;;;;;;12.00;4.68;;;;;;;;;;5092575;28;20415;-65
2021/03/27 15:46:30;;;;;;;9.10;4.53;;;;;;;;;;5092573;28;20028;-65
2021/03/27 15:49:05;;;;;;;9.90;4.88;;;;;;;;;;5092845;28;20024;-65
2021/03/27 15:51:33;;;;;;;21.23;5.60;;;;;;;;;;5092489;28;20034;-65
2021/03/27 15:54:02;;;;;;;7.97;4.90;;;;;;;;;;5092440;28;20016;-65
2021/03/27 15:56:32;;;;;;;7.80;4.95;;;;;;;;;;5092425;28;20091;-65